Pagrindinis puslapis
METAR-TAF:

METAR-TAF

Oro uostai :

Linšiopingas, Švedija

platuma: 58-24N, ilguma: 015-41E, Aukštis: 52 m

Dabartinis oras

Ataskaita buvo paskelbta 25 minutes, ne 05:50 UTC
Vėjas 6 kt iš Rytų, svyruoja nuo Šiaurės Rytų ir Rytų/Pietryčių
Temperatūra 15°C
Drėgmė 88%
Slėgis 1019 hPa
Matomumas 10 km arba daugiau
Su prošvaistėmis ne aukštis 500 ft

METAR: ESSL 240550Z 08006KT 050V110 9999 BKN005 15/13 Q1019

Laikas: 08:15 (06:15 UTC)

Prognozė

Ataskaita buvo paskelbta 45 minutes, ne 05:30 UTC
Prognozė galioja nuo 24 metu 06 UTC su 24 metu 15 UTC
Vėjas 5 kt iš Rytų
Matomumas 10 km arba daugiau
Su prošvaistėmis ne aukštis 600 ft
Tapsmas
nuo 24 metu 06 UTC su 24 metu 08 UTC
Su prošvaistėmis ne aukštis 1000 ft
Tapsmas
nuo 24 metu 08 UTC su 24 metu 10 UTC
Išsisklaidę debesys ne aukštis 1500 ft
Tikimybė 40%
nuo 24 metu 10 UTC su 24 metu 12 UTC
Su prošvaistėmis ne aukštis 1200 ft

TAF: ESSL 240530Z 2406/2415 09005KT 9999 BKN006 BECMG 2406/2408 BKN010 BECMG 2408/2410 SCT015 PROB40 2410/2412 BKN012

Orai ataskaitas ir orų prognozės (METAR, TAF).

turimą stotys yra geltonos ir raudonos taškus žemėlapyje.

Perkelti pele per norėdami pamatyti stoties vardą.

Tada spustelėkite, norėdami matyti oro stebėjimo ir prognozės.

Norėdami pakeisti žemėlapį: spustelėkite ant žalios mygtukų su juodo kryžiaus žemyn,; žalią mygtuką su brūkšneliu, jei norite nutolinti; arba žalių rodyklių gretimoms žemėlapius.


METAR-TAF: